createdAt,value
2023-01-27T00:00:44.474Z,1.07
2023-01-27T00:03:14.756Z,1.08
2023-01-27T00:05:44.351Z,1.07
2023-01-27T00:08:13.336Z,1.05
2023-01-27T00:10:42.614Z,1.03
2023-01-27T00:13:29.333Z,1.10
2023-01-27T00:15:58.355Z,0.99
2023-01-27T00:18:27.547Z,1.01
2023-01-27T00:21:13.853Z,0.92
2023-01-27T00:24:00.205Z,0.94
2023-01-27T00:26:30.270Z,0.90
2023-01-27T00:29:00.733Z,0.86
2023-01-27T00:31:47.184Z,0.86
2023-01-27T00:34:16.383Z,0.83
2023-01-27T00:36:45.430Z,0.81
2023-01-27T00:39:15.010Z,0.81
2023-01-27T00:41:45.906Z,0.80
2023-01-27T00:44:16.995Z,0.85
2023-01-27T00:46:47.288Z,0.86
2023-01-27T00:49:16.436Z,0.90
2023-01-27T00:51:46.108Z,1.00
2023-01-27T00:54:15.898Z,0.98
2023-01-27T00:56:48.642Z,0.97
2023-01-27T00:59:19.777Z,1.07
2023-01-27T01:01:49.463Z,1.13
2023-01-27T01:04:18.974Z,1.14
2023-01-27T01:06:48.628Z,1.24
2023-01-27T01:09:17.672Z,1.21
2023-01-27T01:11:46.648Z,1.19
2023-01-27T01:14:16.279Z,1.16
2023-01-27T01:16:47.352Z,1.12
2023-01-27T01:19:16.837Z,1.19
2023-01-27T01:21:45.765Z,1.22
2023-01-27T01:24:14.907Z,1.22
2023-01-27T01:26:43.975Z,1.23
2023-01-27T01:29:12.977Z,1.26
2023-01-27T01:31:43.207Z,1.29
2023-01-27T01:34:13.704Z,1.34
2023-01-27T01:36:42.723Z,1.25
2023-01-27T01:39:11.883Z,1.30
2023-01-27T01:41:41.040Z,1.27
2023-01-27T01:44:21.801Z,1.28
2023-01-27T01:46:51.581Z,1.30
2023-01-27T01:49:25.240Z,1.37
2023-01-27T01:51:59.292Z,1.36
2023-01-27T01:54:31.510Z,1.34
2023-01-27T01:57:07.377Z,1.38
2023-01-27T01:59:42.650Z,1.38
2023-01-27T02:02:15.875Z,1.45
2023-01-27T02:04:52.629Z,1.37
2023-01-27T02:07:27.725Z,1.38
2023-01-27T02:09:58.286Z,1.39
2023-01-27T02:12:27.465Z,1.43
2023-01-27T02:14:56.877Z,1.47
2023-01-27T02:17:26.501Z,1.51
2023-01-27T02:20:08.719Z,1.43
2023-01-27T02:22:47.201Z,1.40
2023-01-27T02:25:23.567Z,1.42
2023-01-27T02:27:54.085Z,1.51
2023-01-27T02:30:23.883Z,1.52
2023-01-27T02:32:53.066Z,1.51
2023-01-27T02:35:31.378Z,1.52
2023-01-27T02:38:01.784Z,1.48
2023-01-27T02:40:31.929Z,1.55
2023-01-27T02:43:06.439Z,1.53
2023-01-27T02:45:36.001Z,1.52
2023-01-27T02:48:06.373Z,1.51
2023-01-27T02:50:35.650Z,1.42
2023-01-27T02:53:05.061Z,1.43
2023-01-27T02:55:35.119Z,1.40
2023-01-27T02:58:05.625Z,1.42
2023-01-27T03:00:47.972Z,1.36
2023-01-27T03:03:17.346Z,1.38
2023-01-27T03:05:46.646Z,1.34
2023-01-27T03:08:15.998Z,1.32
2023-01-27T03:10:46.536Z,1.24
2023-01-27T03:13:16.985Z,1.19
2023-01-27T03:16:05.723Z,1.25
2023-01-27T03:18:35.511Z,1.14
2023-01-27T03:21:06.185Z,1.06
2023-01-27T03:23:36.294Z,1.11
2023-01-27T03:26:09.094Z,1.09
2023-01-27T03:28:43.353Z,1.06
2023-01-27T03:31:20.872Z,1.02
2023-01-27T03:33:58.639Z,1.01
2023-01-27T03:36:48.396Z,1.08
2023-01-27T03:39:35.529Z,1.11
2023-01-27T03:42:22.556Z,1.12
2023-01-27T03:45:12.267Z,1.09
2023-01-27T03:47:41.676Z,1.09
2023-01-27T03:50:14.109Z,1.06
2023-01-27T03:53:03.096Z,1.00
2023-01-27T03:55:33.740Z,1.00
2023-01-27T03:58:18.701Z,0.97
2023-01-27T04:00:52.724Z,0.97
2023-01-27T04:03:40.272Z,1.02
2023-01-27T04:06:29.274Z,1.02
2023-01-27T04:08:58.747Z,1.07
2023-01-27T04:11:45.664Z,1.05
2023-01-27T04:14:14.869Z,1.14
2023-01-27T04:16:45.799Z,1.19
2023-01-27T04:19:14.787Z,1.11
2023-01-27T04:21:44.057Z,1.09
2023-01-27T04:24:22.828Z,1.02
2023-01-27T04:26:55.724Z,0.97
2023-01-27T04:29:26.549Z,0.98
2023-01-27T04:31:58.170Z,0.94
2023-01-27T04:34:28.228Z,0.88
2023-01-27T04:36:57.905Z,0.85
2023-01-27T04:39:27.254Z,0.82
2023-01-27T04:41:57.662Z,0.82
2023-01-27T04:44:27.808Z,0.80
2023-01-27T04:46:58.468Z,0.83
2023-01-27T04:49:28.156Z,0.85
2023-01-27T04:51:57.343Z,0.80
2023-01-27T04:54:26.507Z,0.66
2023-01-27T04:56:58.733Z,0.64
2023-01-27T04:59:29.307Z,0.54
2023-01-27T05:02:00.607Z,0.55
2023-01-27T05:04:30.544Z,0.49
2023-01-27T05:06:59.559Z,0.47
2023-01-27T05:09:29.316Z,0.53
2023-01-27T05:11:59.495Z,0.44
2023-01-27T05:14:29.249Z,0.44
2023-01-27T05:17:00.009Z,0.50
2023-01-27T05:19:29.233Z,0.52
2023-01-27T05:21:58.373Z,0.53
2023-01-27T05:24:27.715Z,0.58
2023-01-27T05:26:57.849Z,0.54
2023-01-27T05:29:29.231Z,0.61
2023-01-27T05:32:01.124Z,0.36
2023-01-27T05:34:30.346Z,0.44
2023-01-27T05:36:59.543Z,0.61
2023-01-27T05:39:28.707Z,0.68
2023-01-27T05:41:58.357Z,0.68
2023-01-27T05:44:29.095Z,0.76
2023-01-27T05:46:59.601Z,0.75
2023-01-27T05:49:28.735Z,0.70
2023-01-27T05:51:57.823Z,0.64
2023-01-27T05:54:27.512Z,0.67
2023-01-27T05:56:57.276Z,0.58
2023-01-27T05:59:26.382Z,0.63
2023-01-27T06:01:55.448Z,0.66
2023-01-27T06:04:25.940Z,0.68
2023-01-27T06:06:55.670Z,0.71
2023-01-27T06:09:24.647Z,0.76
2023-01-27T06:11:53.844Z,0.75
2023-01-27T06:14:23.777Z,0.72
2023-01-27T06:16:53.784Z,0.80
2023-01-27T06:19:23.494Z,0.80
2023-01-27T06:21:53.957Z,0.83
2023-01-27T06:24:25.063Z,0.82
2023-01-27T06:26:54.091Z,0.79
2023-01-27T06:29:24.295Z,0.79
2023-01-27T06:31:53.996Z,0.78
2023-01-27T06:34:23.790Z,0.72
2023-01-27T06:36:56.347Z,0.70
2023-01-27T06:39:26.615Z,0.59
2023-01-27T06:41:55.659Z,0.64
2023-01-27T06:44:25.996Z,0.68
2023-01-27T06:46:55.220Z,0.72
2023-01-27T06:49:25.275Z,0.69
2023-01-27T06:51:56.325Z,0.63
2023-01-27T06:54:25.610Z,0.67
2023-01-27T06:56:54.514Z,0.69
2023-01-27T06:59:24.270Z,0.68
2023-01-27T07:01:53.379Z,0.68
2023-01-27T07:04:24.399Z,0.74
2023-01-27T07:06:53.400Z,0.78
2023-01-27T07:09:24.083Z,0.83
2023-01-27T07:11:54.265Z,0.85
2023-01-27T07:14:23.480Z,0.78
2023-01-27T07:16:52.455Z,0.72
2023-01-27T07:19:22.244Z,0.72
2023-01-27T07:21:52.008Z,0.65
2023-01-27T07:24:21.138Z,0.57
2023-01-27T07:26:51.603Z,0.56
2023-01-27T07:29:20.744Z,0.57
2023-01-27T07:31:49.904Z,0.65
2023-01-27T07:34:22.826Z,0.72
2023-01-27T07:36:51.852Z,0.83
2023-01-27T07:39:21.064Z,0.92
2023-01-27T07:41:51.683Z,0.95
2023-01-27T07:44:21.824Z,0.98
2023-01-27T07:46:50.894Z,0.95
2023-01-27T07:49:20.149Z,0.96
2023-01-27T07:51:49.164Z,1.03
2023-01-27T07:54:18.223Z,1.22
2023-01-27T07:56:48.473Z,1.28
2023-01-27T07:59:18.987Z,1.21
2023-01-27T08:01:48.459Z,1.30
2023-01-27T08:04:17.491Z,1.31
2023-01-27T08:06:47.300Z,1.35
2023-01-27T08:09:16.222Z,1.55
2023-01-27T08:11:48.288Z,1.61
2023-01-27T08:14:18.938Z,1.64
2023-01-27T08:16:48.009Z,1.59
2023-01-27T08:19:17.323Z,1.57
2023-01-27T08:21:47.036Z,1.52
2023-01-27T08:24:16.209Z,1.44
2023-01-27T08:26:45.440Z,1.44
2023-01-27T08:29:14.460Z,1.42
2023-01-27T08:31:44.906Z,1.30
2023-01-27T08:34:14.059Z,1.32
2023-01-27T08:36:43.768Z,1.06
2023-01-27T08:39:12.984Z,1.21
2023-01-27T08:41:42.202Z,1.09
2023-01-27T08:44:11.830Z,1.19
2023-01-27T08:46:41.408Z,1.22
2023-01-27T08:49:13.980Z,1.12
2023-01-27T08:51:43.263Z,1.02
2023-01-27T08:54:12.327Z,1.10
2023-01-27T08:56:41.402Z,1.20
2023-01-27T08:59:10.571Z,1.24
2023-01-27T09:01:39.903Z,1.25
2023-01-27T09:04:09.725Z,1.23
2023-01-27T09:06:40.451Z,1.41
2023-01-27T09:09:12.576Z,1.41
2023-01-27T09:11:44.382Z,1.38
2023-01-27T09:14:14.128Z,1.33
2023-01-27T09:16:43.221Z,1.42
2023-01-27T09:19:12.261Z,1.54
2023-01-27T09:21:42.844Z,1.48
2023-01-27T09:24:13.607Z,1.65
2023-01-27T09:26:42.762Z,1.78
2023-01-27T09:29:11.834Z,1.74
2023-01-27T09:31:40.960Z,1.66
2023-01-27T09:34:11.119Z,1.72
2023-01-27T09:36:46.165Z,1.58
2023-01-27T09:39:18.716Z,1.56
2023-01-27T09:42:28.763Z,1.67
2023-01-27T09:45:26.291Z,1.53
2023-01-27T09:48:14.163Z,1.49
2023-01-27T09:50:46.931Z,1.48
2023-01-27T09:53:49.272Z,1.39
2023-01-27T09:56:32.853Z,1.45
2023-01-27T09:59:28.264Z,1.52
2023-01-27T10:02:07.354Z,1.44
2023-01-27T10:05:06.870Z,1.49
2023-01-27T10:08:09.337Z,1.60
2023-01-27T10:10:50.312Z,1.53
2023-01-27T10:13:31.535Z,1.62
2023-01-27T10:16:19.803Z,1.39
2023-01-27T10:19:10.727Z,1.36
2023-01-27T10:21:51.307Z,1.42
2023-01-27T10:24:31.008Z,1.38
2023-01-27T10:27:08.751Z,1.52
2023-01-27T10:29:46.054Z,1.44
2023-01-27T10:32:28.127Z,1.54
2023-01-27T10:35:09.835Z,1.64
2023-01-27T10:37:50.638Z,1.58
2023-01-27T10:40:29.481Z,1.64
2023-01-27T10:43:06.021Z,1.57
2023-01-27T10:45:40.900Z,1.55
2023-01-27T10:48:27.222Z,1.58
2023-01-27T10:51:00.971Z,1.55
2023-01-27T10:53:39.256Z,1.48
2023-01-27T10:56:13.759Z,1.46
2023-01-27T10:58:51.912Z,1.51
2023-01-27T11:01:31.540Z,1.52
2023-01-27T11:04:05.393Z,1.46
2023-01-27T11:06:39.228Z,1.47
2023-01-27T11:09:17.541Z,1.41
2023-01-27T11:11:49.642Z,1.52
2023-01-27T11:14:25.289Z,1.57
2023-01-27T11:17:03.189Z,1.59
2023-01-27T11:19:44.361Z,1.59
2023-01-27T11:22:21.649Z,1.60
2023-01-27T11:24:59.372Z,1.56
2023-01-27T11:27:55.477Z,1.55
2023-01-27T11:30:33.620Z,1.33
2023-01-27T11:33:13.181Z,1.40
2023-01-27T11:35:42.264Z,1.38
2023-01-27T11:38:18.450Z,1.40
2023-01-27T11:40:50.747Z,1.47
2023-01-27T11:43:22.265Z,1.37
2023-01-27T11:45:53.912Z,1.35
2023-01-27T11:48:24.532Z,1.44
2023-01-27T11:50:53.683Z,1.45
2023-01-27T11:53:28.029Z,1.33
2023-01-27T11:56:01.984Z,1.36
2023-01-27T11:58:38.627Z,1.35
2023-01-27T12:01:16.825Z,1.32
2023-01-27T12:03:56.099Z,1.29
2023-01-27T12:06:34.514Z,1.24
2023-01-27T12:09:03.745Z,1.38
2023-01-27T12:11:33.988Z,1.32
2023-01-27T12:14:05.711Z,1.48
2023-01-27T12:16:50.855Z,1.44
2023-01-27T12:19:29.465Z,1.50
2023-01-27T12:22:02.471Z,1.54
2023-01-27T12:24:33.345Z,1.51
2023-01-27T12:27:04.622Z,1.74
2023-01-27T12:29:40.567Z,1.79
2023-01-27T12:32:18.731Z,1.68
2023-01-27T12:34:56.577Z,1.91
2023-01-27T12:37:32.066Z,1.94
2023-01-27T12:40:04.190Z,2.03
2023-01-27T12:42:42.009Z,2.07
2023-01-27T12:45:23.534Z,2.14
2023-01-27T12:48:02.399Z,2.22
2023-01-27T12:50:34.567Z,2.27
2023-01-27T12:53:12.183Z,2.48
2023-01-27T12:55:43.288Z,2.53
2023-01-27T12:58:32.061Z,2.49
2023-01-27T13:01:03.847Z,2.39
2023-01-27T13:03:40.562Z,2.29
2023-01-27T13:06:15.709Z,2.32
2023-01-27T13:08:45.868Z,2.47
2023-01-27T13:11:15.193Z,2.31
2023-01-27T13:13:51.764Z,2.19
2023-01-27T13:16:28.441Z,2.28
2023-01-27T13:18:59.721Z,2.12
2023-01-27T13:21:36.733Z,2.16
2023-01-27T13:24:12.009Z,2.09
2023-01-27T13:26:42.896Z,1.89
2023-01-27T13:29:17.769Z,1.78
2023-01-27T13:31:52.593Z,1.83
2023-01-27T13:34:29.871Z,1.83
2023-01-27T13:37:05.437Z,1.75
2023-01-27T13:39:49.222Z,1.81
2023-01-27T13:42:29.968Z,1.75
2023-01-27T13:45:04.333Z,1.63
2023-01-27T13:47:41.492Z,1.62
2023-01-27T13:50:25.320Z,1.50
2023-01-27T13:52:58.799Z,1.41
2023-01-27T13:55:44.702Z,1.29
2023-01-27T13:58:23.216Z,1.28
2023-01-27T14:00:59.237Z,1.35
2023-01-27T14:03:54.845Z,1.37
2023-01-27T14:06:38.669Z,1.13
2023-01-27T14:09:22.016Z,1.27
2023-01-27T14:11:57.537Z,1.23
2023-01-27T14:14:52.527Z,1.06
2023-01-27T14:17:37.065Z,1.17
2023-01-27T14:20:26.588Z,1.17
2023-01-27T14:23:06.664Z,1.08
2023-01-27T14:25:43.793Z,1.17
2023-01-27T14:28:27.416Z,1.02
2023-01-27T14:31:02.277Z,1.17
2023-01-27T14:33:46.133Z,1.20
2023-01-27T14:36:21.663Z,1.24
2023-01-27T14:39:01.058Z,1.25
2023-01-27T14:41:41.678Z,1.23
2023-01-27T14:44:20.619Z,1.18
2023-01-27T14:47:01.998Z,1.16
2023-01-27T14:49:51.328Z,1.05
2023-01-27T14:52:32.073Z,1.11
2023-01-27T14:55:20.800Z,1.14
2023-01-27T14:58:00.321Z,1.16
2023-01-27T15:00:42.836Z,1.13
2023-01-27T15:03:40.417Z,1.28
2023-01-27T15:06:17.191Z,1.28
2023-01-27T15:08:54.173Z,1.35
2023-01-27T15:11:46.357Z,1.22
2023-01-27T15:14:42.559Z,1.12
2023-01-27T15:17:32.775Z,1.12
2023-01-27T15:20:22.081Z,1.14
2023-01-27T15:23:10.019Z,1.24
2023-01-27T15:25:41.701Z,1.17
2023-01-27T15:28:14.952Z,1.14
2023-01-27T15:31:09.846Z,1.21
2023-01-27T15:33:53.282Z,1.09
2023-01-27T15:36:36.576Z,1.08
2023-01-27T15:39:35.580Z,1.13
2023-01-27T15:42:13.711Z,1.05
2023-01-27T15:45:04.419Z,0.99
2023-01-27T15:47:37.102Z,1.03
2023-01-27T15:50:24.878Z,1.12
2023-01-27T15:53:00.481Z,1.06
2023-01-27T15:55:32.170Z,1.16
2023-01-27T15:58:22.437Z,1.12
2023-01-27T16:00:55.219Z,0.96
2023-01-27T16:03:32.614Z,1.08
2023-01-27T16:06:09.891Z,0.95
2023-01-27T16:08:43.592Z,0.94
2023-01-27T16:11:39.700Z,0.90
2023-01-27T16:14:41.712Z,1.02
2023-01-27T16:17:26.787Z,0.90
2023-01-27T16:20:28.904Z,0.94
2023-01-27T16:23:04.331Z,0.85
2023-01-27T16:25:42.751Z,0.88
2023-01-27T16:28:18.215Z,0.90
2023-01-27T16:31:04.059Z,0.81
2023-01-27T16:33:38.704Z,0.93
2023-01-27T16:36:11.283Z,0.90
2023-01-27T16:38:42.700Z,0.85
2023-01-27T16:41:19.701Z,0.90
2023-01-27T16:43:53.600Z,0.97
2023-01-27T16:46:31.655Z,0.94
2023-01-27T16:49:05.027Z,0.86
2023-01-27T16:51:37.003Z,0.97
2023-01-27T16:54:19.450Z,0.97
2023-01-27T16:56:53.290Z,0.94
2023-01-27T16:59:26.935Z,1.01
2023-01-27T17:02:01.928Z,1.02
2023-01-27T17:04:33.697Z,1.04
2023-01-27T17:07:11.770Z,1.02
2023-01-27T17:09:43.448Z,1.01
2023-01-27T17:12:28.624Z,0.93
2023-01-27T17:14:58.792Z,1.05
2023-01-27T17:17:30.560Z,0.96
2023-01-27T17:20:04.497Z,1.05
2023-01-27T17:22:39.281Z,1.09
2023-01-27T17:25:16.663Z,1.12
2023-01-27T17:27:47.130Z,1.11
2023-01-27T17:30:22.917Z,1.04
2023-01-27T17:32:54.842Z,1.08
2023-01-27T17:35:26.984Z,1.01
2023-01-27T17:38:11.563Z,1.07
2023-01-27T17:40:43.465Z,1.23
2023-01-27T17:43:32.222Z,1.07
2023-01-27T17:46:16.863Z,1.08
2023-01-27T17:48:52.915Z,1.12
2023-01-27T17:51:25.022Z,1.15
2023-01-27T17:53:56.409Z,1.13
2023-01-27T17:56:30.298Z,1.16
2023-01-27T17:59:05.759Z,1.21
2023-01-27T18:01:36.138Z,1.18
2023-01-27T18:04:07.386Z,1.17
2023-01-27T18:06:37.898Z,1.13
2023-01-27T18:09:19.959Z,1.23
2023-01-27T18:11:55.580Z,1.19
2023-01-27T18:14:24.943Z,1.21
2023-01-27T18:17:04.728Z,1.21
2023-01-27T18:19:34.655Z,1.18
2023-01-27T18:22:12.692Z,1.14
2023-01-27T18:24:51.810Z,1.23
2023-01-27T18:27:27.762Z,1.09
2023-01-27T18:30:02.923Z,1.09
2023-01-27T18:32:40.573Z,1.14
2023-01-27T18:35:24.733Z,0.96
2023-01-27T18:37:56.450Z,1.04
2023-01-27T18:40:32.935Z,1.16
2023-01-27T18:43:03.836Z,1.20
2023-01-27T18:45:33.707Z,1.21
2023-01-27T18:48:04.267Z,1.20
2023-01-27T18:50:34.137Z,1.18
2023-01-27T18:53:03.518Z,1.24
2023-01-27T18:55:35.164Z,1.14
2023-01-27T18:58:04.524Z,1.13
2023-01-27T19:00:38.905Z,1.06
2023-01-27T19:03:14.757Z,0.91
2023-01-27T19:05:44.291Z,1.02
2023-01-27T19:08:16.308Z,1.03
2023-01-27T19:10:48.072Z,0.96
2023-01-27T19:13:18.562Z,1.05
2023-01-27T19:15:50.683Z,0.93
2023-01-27T19:18:26.024Z,1.04
2023-01-27T19:20:55.973Z,1.06
2023-01-27T19:23:25.131Z,1.06
2023-01-27T19:25:58.814Z,1.05
2023-01-27T19:28:32.356Z,1.21
2023-01-27T19:31:02.264Z,1.18
2023-01-27T19:33:32.807Z,1.14
2023-01-27T19:36:11.826Z,1.12
2023-01-27T19:38:41.034Z,1.14
2023-01-27T19:41:12.748Z,1.15
2023-01-27T19:43:42.986Z,1.21
2023-01-27T19:46:15.342Z,1.16
2023-01-27T19:48:44.735Z,1.20
2023-01-27T19:51:14.398Z,1.11
2023-01-27T19:53:43.641Z,1.14
2023-01-27T19:56:17.893Z,1.16
2023-01-27T19:58:51.043Z,1.17
2023-01-27T20:01:20.543Z,1.22
2023-01-27T20:03:51.382Z,1.21
2023-01-27T20:06:22.491Z,1.15
2023-01-27T20:08:55.581Z,1.15
2023-01-27T20:11:36.074Z,1.12
2023-01-27T20:14:07.933Z,1.09
2023-01-27T20:16:37.067Z,1.12
2023-01-27T20:19:06.314Z,1.02
2023-01-27T20:21:35.457Z,1.09
2023-01-27T20:24:04.768Z,1.05
2023-01-27T20:26:37.660Z,1.03
2023-01-27T20:29:06.696Z,1.15
2023-01-27T20:31:36.275Z,1.15
2023-01-27T20:34:05.574Z,1.20
2023-01-27T20:36:35.825Z,1.19
2023-01-27T20:39:05.059Z,1.15
2023-01-27T20:41:35.623Z,1.08
2023-01-27T20:44:04.691Z,0.96
2023-01-27T20:46:33.918Z,1.12
2023-01-27T20:49:03.022Z,1.08
2023-01-27T20:51:32.985Z,1.17
2023-01-27T20:54:02.576Z,1.13
2023-01-27T20:56:31.712Z,1.06
2023-01-27T20:59:02.452Z,1.10
2023-01-27T21:01:33.252Z,1.17
2023-01-27T21:04:02.578Z,1.11
2023-01-27T21:06:32.479Z,1.12
2023-01-27T21:09:01.726Z,1.11
2023-01-27T21:11:31.071Z,1.05
2023-01-27T21:14:01.614Z,1.12
2023-01-27T21:16:31.470Z,0.98
2023-01-27T21:19:01.151Z,0.98
2023-01-27T21:21:32.057Z,1.02
2023-01-27T21:24:01.678Z,1.06
2023-01-27T21:26:30.881Z,1.12
2023-01-27T21:29:01.292Z,0.81
2023-01-27T21:31:32.710Z,0.89
2023-01-27T21:34:01.887Z,0.99
2023-01-27T21:36:31.579Z,0.97
2023-01-27T21:39:02.612Z,0.95
2023-01-27T21:41:49.148Z,0.92
2023-01-27T21:44:37.955Z,0.88
2023-01-27T21:47:09.729Z,0.97
2023-01-27T21:49:53.880Z,0.97
2023-01-27T21:52:23.620Z,1.05
2023-01-27T21:54:52.703Z,0.99
2023-01-27T21:57:22.038Z,0.96
2023-01-27T21:59:51.931Z,1.08
2023-01-27T22:02:22.606Z,1.13
2023-01-27T22:04:52.951Z,1.07
2023-01-27T22:07:22.281Z,1.01
2023-01-27T22:09:52.324Z,1.06
2023-01-27T22:12:22.503Z,1.00
2023-01-27T22:14:51.556Z,0.92
2023-01-27T22:17:22.326Z,1.02
2023-01-27T22:19:51.348Z,1.11
2023-01-27T22:22:20.375Z,1.05
2023-01-27T22:24:49.885Z,1.08
2023-01-27T22:27:20.039Z,1.07
2023-01-27T22:29:49.053Z,1.11
2023-01-27T22:32:18.266Z,1.08
2023-01-27T22:34:48.900Z,1.00
2023-01-27T22:37:18.080Z,0.87
2023-01-27T22:39:47.189Z,0.89
2023-01-27T22:42:16.372Z,0.84
2023-01-27T22:44:46.043Z,0.77
2023-01-27T22:47:15.947Z,0.77
2023-01-27T22:49:45.122Z,0.76
2023-01-27T22:52:16.865Z,0.75
2023-01-27T22:54:45.898Z,0.67
2023-01-27T22:57:15.145Z,0.72
2023-01-27T22:59:44.190Z,0.63
2023-01-27T23:02:13.469Z,0.70
2023-01-27T23:04:42.510Z,0.70
2023-01-27T23:07:12.185Z,0.63
2023-01-27T23:09:42.771Z,0.71
2023-01-27T23:12:11.862Z,0.73
2023-01-27T23:14:41.123Z,0.64
2023-01-27T23:17:10.478Z,0.69
2023-01-27T23:19:40.068Z,0.68
2023-01-27T23:22:09.004Z,0.68
2023-01-27T23:24:38.142Z,0.67
2023-01-27T23:27:09.266Z,0.78
2023-01-27T23:29:38.424Z,0.78
2023-01-27T23:32:08.010Z,0.77
2023-01-27T23:34:38.339Z,0.75
2023-01-27T23:37:07.399Z,0.79
2023-01-27T23:39:36.406Z,0.81
2023-01-27T23:42:05.630Z,0.84
2023-01-27T23:44:36.156Z,0.78
2023-01-27T23:47:05.767Z,0.85
2023-01-27T23:49:35.389Z,0.85
2023-01-27T23:52:05.372Z,0.87
2023-01-27T23:54:38.306Z,1.09
2023-01-27T23:57:07.416Z,1.14
2023-01-27T23:59:37.923Z,1.15
